createdAt,value
2018-11-11T00:01:30.029Z,13.27
2018-11-11T00:03:59.894Z,13.21
2018-11-11T00:06:30.174Z,13.19
2018-11-11T00:09:00.026Z,13.15
2018-11-11T00:11:29.854Z,13.18
2018-11-11T00:13:59.858Z,12.98
2018-11-11T00:16:29.884Z,12.91
2018-11-11T00:19:00.144Z,12.88
2018-11-11T00:21:29.979Z,12.86
2018-11-11T00:24:00.030Z,12.84
2018-11-11T00:26:29.912Z,12.83
2018-11-11T00:29:01.709Z,12.93
2018-11-11T00:31:29.933Z,12.95
2018-11-11T00:33:59.983Z,13.07
2018-11-11T00:36:30.114Z,12.97
2018-11-11T00:39:00.050Z,12.93
2018-11-11T00:41:30.033Z,12.82
2018-11-11T00:44:00.039Z,12.76
2018-11-11T00:46:30.127Z,12.76
2018-11-11T00:49:00.242Z,12.72
2018-11-11T00:51:30.109Z,12.80
2018-11-11T00:54:00.050Z,12.85
2018-11-11T00:56:30.054Z,12.90
2018-11-11T00:59:00.009Z,12.91
2018-11-11T01:01:30.039Z,12.84
2018-11-11T01:04:00.016Z,12.88
2018-11-11T01:06:29.982Z,13.00
2018-11-11T01:09:00.057Z,13.02
2018-11-11T01:11:30.272Z,13.12
2018-11-11T01:14:00.124Z,13.23
2018-11-11T01:16:30.226Z,13.38
2018-11-11T01:19:00.220Z,13.54
2018-11-11T01:21:30.191Z,13.55
2018-11-11T01:24:00.062Z,13.43
2018-11-11T01:26:30.395Z,13.40
2018-11-11T01:29:00.263Z,13.32
2018-11-11T01:31:30.429Z,13.24
2018-11-11T01:34:00.423Z,13.26
2018-11-11T01:36:30.380Z,13.29
2018-11-11T01:39:00.479Z,13.29
2018-11-11T01:41:30.410Z,13.31
2018-11-11T01:44:00.394Z,13.32
2018-11-11T01:46:30.469Z,13.26
2018-11-11T01:49:00.680Z,13.28
2018-11-11T01:51:30.608Z,13.28
2018-11-11T01:54:00.729Z,13.20
2018-11-11T01:56:30.704Z,13.23
2018-11-11T01:59:00.508Z,13.17
2018-11-11T02:01:30.563Z,13.13
2018-11-11T02:04:00.554Z,13.13
2018-11-11T02:06:30.690Z,13.13
2018-11-11T02:09:00.748Z,13.11
2018-11-11T02:11:31.006Z,13.02
2018-11-11T02:14:00.728Z,13.00
2018-11-11T02:16:30.744Z,13.01
2018-11-11T02:19:00.735Z,13.08
2018-11-11T02:21:30.792Z,13.19
2018-11-11T02:24:00.754Z,13.19
2018-11-11T02:26:30.734Z,13.14
2018-11-11T02:29:00.828Z,13.04
2018-11-11T02:31:30.778Z,12.99
2018-11-11T02:34:00.879Z,12.94
2018-11-11T02:36:30.874Z,12.94
2018-11-11T02:39:00.852Z,12.97
2018-11-11T02:41:30.899Z,12.97
2018-11-11T02:44:00.904Z,13.00
2018-11-11T02:46:30.810Z,12.90
2018-11-11T02:49:00.915Z,12.90
2018-11-11T02:51:30.897Z,12.89
2018-11-11T02:54:00.829Z,12.91
2018-11-11T02:56:31.148Z,12.86
2018-11-11T02:59:00.834Z,12.83
2018-11-11T03:01:30.932Z,12.87
2018-11-11T03:04:01.024Z,12.83
2018-11-11T03:06:31.060Z,12.80
2018-11-11T03:09:00.889Z,12.85
2018-11-11T03:11:30.870Z,12.90
2018-11-11T03:14:00.983Z,12.86
2018-11-11T03:16:30.931Z,12.83
2018-11-11T03:19:01.028Z,12.79
2018-11-11T03:21:31.129Z,12.79
2018-11-11T03:24:02.307Z,12.80
2018-11-11T03:26:31.148Z,12.87
2018-11-11T03:29:01.012Z,12.79
2018-11-11T03:31:31.059Z,12.80
2018-11-11T03:34:01.120Z,12.92
2018-11-11T03:36:31.134Z,12.90
2018-11-11T03:39:01.246Z,12.84
2018-11-11T03:41:31.209Z,12.83
2018-11-11T03:44:03.154Z,12.89
2018-11-11T03:46:32.861Z,12.80
2018-11-11T03:49:02.643Z,12.85
2018-11-11T03:51:32.363Z,12.88
2018-11-11T03:54:02.257Z,12.92
2018-11-11T03:56:31.997Z,12.87
2018-11-11T03:59:01.682Z,12.78
2018-11-11T04:01:31.415Z,12.76
2018-11-11T04:04:03.978Z,12.84
2018-11-11T04:06:33.679Z,12.93
2018-11-11T04:09:03.579Z,12.95
2018-11-11T04:11:33.468Z,13.05
2018-11-11T04:14:03.140Z,13.16
2018-11-11T04:16:33.031Z,13.25
2018-11-11T04:19:02.998Z,13.36
2018-11-11T04:21:32.759Z,13.28
2018-11-11T04:24:04.962Z,13.17
2018-11-11T04:26:34.833Z,13.13
2018-11-11T04:29:04.577Z,13.15
2018-11-11T04:31:34.345Z,13.09
2018-11-11T04:34:04.047Z,13.02
2018-11-11T04:36:33.743Z,13.06
2018-11-11T04:39:03.842Z,13.12
2018-11-11T04:41:33.551Z,13.13
2018-11-11T04:44:03.442Z,13.15
2018-11-11T04:46:33.295Z,13.10
2018-11-11T04:49:02.965Z,13.01
2018-11-11T04:51:32.778Z,12.91
2018-11-11T04:54:02.454Z,12.97
2018-11-11T04:56:32.203Z,12.97
2018-11-11T04:59:01.872Z,12.99
2018-11-11T05:01:31.624Z,13.00
2018-11-11T05:04:01.522Z,13.08
2018-11-11T05:06:31.632Z,13.16
2018-11-11T05:09:01.488Z,13.20
2018-11-11T05:11:36.624Z,13.21
2018-11-11T05:14:06.384Z,13.13
2018-11-11T05:16:36.182Z,13.14
2018-11-11T05:19:06.513Z,13.11
2018-11-11T05:21:36.234Z,13.09
2018-11-11T05:24:06.517Z,13.07
2018-11-11T05:26:36.416Z,13.02
2018-11-11T05:29:06.186Z,12.91
2018-11-11T05:31:35.980Z,12.93
2018-11-11T05:34:05.678Z,12.92
2018-11-11T05:36:35.473Z,12.99
2018-11-11T05:39:09.456Z,12.99
2018-11-11T05:41:39.236Z,12.92
2018-11-11T05:44:09.679Z,12.95
2018-11-11T05:46:39.754Z,12.94
2018-11-11T05:49:09.475Z,12.87
2018-11-11T05:51:39.188Z,12.98
2018-11-11T05:54:08.923Z,13.00
2018-11-11T05:56:38.928Z,12.93
2018-11-11T05:59:08.656Z,12.89
2018-11-11T06:01:41.114Z,12.89
2018-11-11T06:04:10.817Z,12.88
2018-11-11T06:06:40.514Z,12.86
2018-11-11T06:09:11.352Z,12.83
2018-11-11T06:11:41.236Z,12.92
2018-11-11T06:14:11.011Z,12.91
2018-11-11T06:16:40.742Z,12.79
2018-11-11T06:19:10.511Z,12.75
2018-11-11T06:21:40.255Z,12.68
2018-11-11T06:24:09.968Z,12.63
2018-11-11T06:26:39.723Z,12.59
2018-11-11T06:29:09.827Z,12.63
2018-11-11T06:31:39.582Z,12.61
2018-11-11T06:34:09.337Z,12.57
2018-11-11T06:36:39.018Z,12.57
2018-11-11T06:39:10.615Z,12.62
2018-11-11T06:41:40.433Z,12.62
2018-11-11T06:44:10.462Z,12.63
2018-11-11T06:46:40.170Z,12.64
2018-11-11T06:49:09.899Z,12.59
2018-11-11T06:51:39.617Z,12.67
2018-11-11T06:54:09.336Z,12.85
2018-11-11T06:56:39.152Z,13.12
2018-11-11T06:59:08.890Z,13.08
2018-11-11T07:01:38.630Z,12.92
2018-11-11T07:04:11.022Z,12.86
2018-11-11T07:06:42.562Z,12.74
2018-11-11T07:09:12.272Z,12.72
2018-11-11T07:11:41.981Z,12.68
2018-11-11T07:14:11.928Z,12.65
2018-11-11T07:16:41.493Z,12.58
2018-11-11T07:19:11.286Z,12.56
2018-11-11T07:21:41.000Z,12.53
2018-11-11T07:24:10.860Z,12.58
2018-11-11T07:26:40.447Z,12.61
2018-11-11T07:29:10.217Z,12.69
2018-11-11T07:31:39.919Z,12.64
2018-11-11T07:34:09.668Z,12.66
2018-11-11T07:36:39.377Z,12.67
2018-11-11T07:39:14.073Z,12.80
2018-11-11T07:41:43.892Z,12.88
2018-11-11T07:44:13.617Z,12.86
2018-11-11T07:46:43.391Z,12.91
2018-11-11T07:49:13.266Z,12.97
2018-11-11T07:51:42.975Z,13.00
2018-11-11T07:54:12.731Z,13.11
2018-11-11T07:56:42.495Z,13.11
2018-11-11T07:59:12.181Z,13.13
2018-11-11T08:01:42.067Z,13.17
2018-11-11T08:04:11.699Z,13.06
2018-11-11T08:06:41.504Z,13.06
2018-11-11T08:09:11.273Z,13.08
2018-11-11T08:12:02.808Z,13.17
2018-11-11T08:14:32.645Z,13.19
2018-11-11T08:17:02.677Z,13.23
2018-11-11T08:19:32.438Z,13.25
2018-11-11T08:22:02.571Z,13.29
2018-11-11T08:24:32.593Z,13.41
2018-11-11T08:27:02.621Z,13.59
2018-11-11T08:29:32.574Z,13.72
2018-11-11T08:32:02.628Z,13.72
2018-11-11T08:34:32.664Z,13.64
2018-11-11T08:37:02.677Z,13.74
2018-11-11T08:39:32.769Z,13.73
2018-11-11T08:42:02.598Z,13.66
2018-11-11T08:44:34.391Z,13.62
2018-11-11T08:47:02.685Z,13.48
2018-11-11T08:49:32.905Z,13.49
2018-11-11T08:52:02.680Z,13.46
2018-11-11T08:54:32.773Z,13.36
2018-11-11T08:57:02.711Z,13.42
2018-11-11T08:59:32.752Z,13.45
2018-11-11T09:02:02.708Z,13.40
2018-11-11T09:04:32.701Z,13.46
2018-11-11T09:07:02.927Z,13.48
2018-11-11T09:09:32.763Z,13.52
2018-11-11T09:12:02.716Z,13.68
2018-11-11T09:14:35.338Z,13.77
2018-11-11T09:17:05.104Z,13.82
2018-11-11T09:19:34.865Z,13.91
2018-11-11T09:22:04.607Z,14.12
2018-11-11T09:24:34.377Z,14.25
2018-11-11T09:27:04.316Z,14.33
2018-11-11T09:29:34.490Z,14.31
2018-11-11T09:32:04.205Z,14.52
2018-11-11T09:34:33.993Z,14.56
2018-11-11T09:37:03.830Z,14.46
2018-11-11T09:39:33.701Z,14.40
2018-11-11T09:42:03.396Z,14.45
2018-11-11T09:44:33.192Z,14.43
2018-11-11T09:47:03.101Z,14.34
2018-11-11T09:49:33.321Z,14.40
2018-11-11T09:52:03.102Z,14.47
2018-11-11T09:54:33.019Z,14.57
2018-11-11T09:57:02.967Z,14.61
2018-11-11T09:59:33.155Z,14.61
2018-11-11T10:02:05.711Z,14.58
2018-11-11T10:04:52.835Z,14.58
2018-11-11T10:07:39.942Z,14.71
2018-11-11T10:10:34.521Z,14.88
2018-11-11T10:13:10.742Z,15.09
2018-11-11T10:15:53.136Z,14.90
2018-11-11T10:18:47.455Z,14.81
2018-11-11T10:21:36.046Z,14.77
2018-11-11T10:24:36.366Z,14.71
2018-11-11T10:27:24.030Z,14.53
2018-11-11T10:30:11.183Z,14.53
2018-11-11T10:33:23.975Z,14.63
2018-11-11T10:36:24.613Z,14.77
2018-11-11T10:39:05.620Z,14.90
2018-11-11T10:41:53.196Z,14.96
2018-11-11T10:44:35.595Z,15.04
2018-11-11T10:47:07.167Z,15.16
2018-11-11T10:49:52.291Z,15.13
2018-11-11T10:52:22.341Z,15.12
2018-11-11T10:54:52.080Z,15.10
2018-11-11T10:57:21.890Z,15.10
2018-11-11T10:59:51.670Z,15.12
2018-11-11T11:02:28.092Z,15.06
2018-11-11T11:05:10.006Z,14.99
2018-11-11T11:07:39.862Z,15.05
2018-11-11T11:10:09.801Z,15.02
2018-11-11T11:12:39.658Z,15.02
2018-11-11T11:15:11.561Z,15.13
2018-11-11T11:17:41.781Z,15.13
2018-11-11T11:20:11.531Z,15.11
2018-11-11T11:22:41.349Z,15.21
2018-11-11T11:25:11.927Z,15.23
2018-11-11T11:27:42.101Z,15.31
2018-11-11T11:30:13.656Z,15.35
2018-11-11T11:32:43.422Z,15.34
2018-11-11T11:35:13.182Z,15.23
2018-11-11T11:37:42.908Z,15.19
2018-11-11T11:40:12.691Z,15.24
2018-11-11T11:42:42.421Z,15.30
2018-11-11T11:45:12.858Z,15.40
2018-11-11T11:47:43.122Z,15.45
2018-11-11T11:50:13.883Z,15.44
2018-11-11T11:52:44.064Z,15.52
2018-11-11T11:55:14.062Z,15.53
2018-11-11T11:57:43.693Z,15.42
2018-11-11T12:00:14.446Z,15.43
2018-11-11T12:02:44.155Z,15.40
2018-11-11T12:05:13.901Z,15.31
2018-11-11T12:07:43.656Z,15.32
2018-11-11T12:10:13.583Z,15.38
2018-11-11T12:12:43.465Z,15.22
2018-11-11T12:15:13.366Z,15.12
2018-11-11T12:17:43.098Z,15.06
2018-11-11T12:20:12.854Z,15.08
2018-11-11T12:22:42.641Z,15.21
2018-11-11T12:25:12.516Z,15.33
2018-11-11T12:27:42.404Z,15.41
2018-11-11T12:30:12.222Z,15.53
2018-11-11T12:32:44.036Z,15.51
2018-11-11T12:35:13.794Z,15.41
2018-11-11T12:37:43.482Z,15.30
2018-11-11T12:40:13.476Z,15.31
2018-11-11T12:42:43.920Z,15.32
2018-11-11T12:45:16.312Z,15.30
2018-11-11T12:47:46.023Z,15.17
2018-11-11T12:50:15.913Z,15.09
2018-11-11T12:52:45.635Z,15.01
2018-11-11T12:55:15.363Z,15.03
2018-11-11T12:57:45.091Z,15.10
2018-11-11T13:00:17.915Z,15.20
2018-11-11T13:02:47.792Z,15.25
2018-11-11T13:05:17.637Z,15.12
2018-11-11T13:07:47.383Z,15.09
2018-11-11T13:10:17.265Z,15.10
2018-11-11T13:12:47.069Z,14.98
2018-11-11T13:15:16.919Z,14.93
2018-11-11T13:17:46.641Z,14.85
2018-11-11T13:20:20.206Z,14.84
2018-11-11T13:22:50.163Z,14.89
2018-11-11T13:25:19.780Z,14.98
2018-11-11T13:27:49.670Z,15.10
2018-11-11T13:30:19.479Z,14.93
2018-11-11T13:32:49.225Z,14.74
2018-11-11T13:35:19.032Z,14.51
2018-11-11T13:37:48.984Z,14.35
2018-11-11T13:40:19.746Z,14.28
2018-11-11T13:42:49.462Z,14.26
2018-11-11T13:45:20.658Z,14.26
2018-11-11T13:47:50.935Z,14.13
2018-11-11T13:50:24.819Z,14.07
2018-11-11T13:52:54.696Z,14.00
2018-11-11T13:55:24.431Z,13.82
2018-11-11T13:57:54.216Z,13.82
2018-11-11T14:00:27.961Z,13.91
2018-11-11T14:02:58.011Z,13.94
2018-11-11T14:05:27.730Z,13.83
2018-11-11T14:07:57.476Z,13.82
2018-11-11T14:10:29.087Z,13.76
2018-11-11T14:12:58.995Z,13.77
2018-11-11T14:15:29.156Z,13.78
2018-11-11T14:17:58.973Z,13.73
2018-11-11T14:20:28.734Z,13.68
2018-11-11T14:22:58.427Z,13.70
2018-11-11T14:25:31.324Z,13.69
2018-11-11T14:28:01.055Z,13.69
2018-11-11T14:30:30.975Z,13.70
2018-11-11T14:33:00.778Z,13.76
2018-11-11T14:35:30.661Z,13.75
2018-11-11T14:38:00.351Z,13.71
2018-11-11T14:40:30.894Z,13.73
2018-11-11T14:43:00.721Z,13.65
2018-11-11T14:45:30.553Z,13.60
2018-11-11T14:48:00.382Z,13.51
2018-11-11T14:50:30.264Z,13.56
2018-11-11T14:53:00.026Z,13.62
2018-11-11T14:55:30.632Z,13.60
2018-11-11T14:58:01.504Z,13.70
2018-11-11T15:00:35.479Z,13.72
2018-11-11T15:03:12.727Z,13.57
2018-11-11T15:05:42.510Z,13.52
2018-11-11T15:08:12.316Z,13.56
2018-11-11T15:10:41.961Z,13.55
2018-11-11T15:13:12.778Z,13.48
2018-11-11T15:15:42.445Z,13.52
2018-11-11T15:18:12.238Z,13.45
2018-11-11T15:20:42.334Z,13.48
2018-11-11T15:23:11.824Z,13.44
2018-11-11T15:25:41.551Z,13.49
2018-11-11T15:28:11.318Z,13.52
2018-11-11T15:30:44.037Z,13.53
2018-11-11T15:33:13.666Z,13.47
2018-11-11T15:35:43.425Z,13.45
2018-11-11T15:38:13.306Z,13.39
2018-11-11T15:40:43.150Z,13.42
2018-11-11T15:43:13.000Z,13.35
2018-11-11T15:45:42.799Z,13.47
2018-11-11T15:48:12.617Z,13.48
2018-11-11T15:50:42.339Z,13.49
2018-11-11T15:53:12.091Z,13.51
2018-11-11T15:55:41.842Z,13.53
2018-11-11T15:58:11.581Z,13.53
2018-11-11T16:00:44.551Z,13.42
2018-11-11T16:03:17.594Z,13.27
2018-11-11T16:05:45.869Z,13.18
2018-11-11T16:08:15.741Z,13.13
2018-11-11T16:10:45.462Z,13.19
2018-11-11T16:13:15.191Z,13.26
2018-11-11T16:15:44.941Z,13.23
2018-11-11T16:18:15.121Z,13.21
2018-11-11T16:20:44.809Z,13.30
2018-11-11T16:23:14.519Z,13.34
2018-11-11T16:25:44.445Z,13.35
2018-11-11T16:28:14.005Z,13.45
2018-11-11T16:30:43.792Z,13.57
2018-11-11T16:33:13.594Z,13.70
2018-11-11T16:35:43.328Z,13.74
2018-11-11T16:38:13.176Z,13.63
2018-11-11T16:40:42.972Z,13.45
2018-11-11T16:43:13.726Z,13.44
2018-11-11T16:45:43.544Z,13.32
2018-11-11T16:48:13.321Z,13.16
2018-11-11T16:50:43.025Z,13.04
2018-11-11T16:53:12.887Z,13.05
2018-11-11T16:55:42.547Z,13.12
2018-11-11T16:58:12.359Z,13.06
2018-11-11T17:00:42.197Z,13.07
2018-11-11T17:03:11.941Z,13.17
2018-11-11T17:05:41.730Z,13.11
2018-11-11T17:08:11.594Z,13.26
2018-11-11T17:10:41.582Z,13.31
2018-11-11T17:13:13.010Z,13.36
2018-11-11T17:15:42.914Z,13.28
2018-11-11T17:18:12.679Z,13.15
2018-11-11T17:20:42.581Z,13.18
2018-11-11T17:23:12.423Z,13.28
2018-11-11T17:25:42.198Z,13.30
2018-11-11T17:28:12.072Z,13.41
2018-11-11T17:30:41.715Z,13.39
2018-11-11T17:33:11.558Z,13.39
2018-11-11T17:35:41.278Z,13.30
2018-11-11T17:38:11.067Z,13.28
2018-11-11T17:40:40.901Z,13.32
2018-11-11T17:43:10.644Z,13.31
2018-11-11T17:45:40.416Z,13.32
2018-11-11T17:48:10.197Z,13.40
2018-11-11T17:50:39.896Z,13.33
2018-11-11T17:53:09.623Z,13.34
2018-11-11T17:55:39.640Z,13.27
2018-11-11T17:58:09.168Z,13.39
2018-11-11T18:00:38.930Z,13.41
2018-11-11T18:03:08.669Z,13.24
2018-11-11T18:05:38.513Z,13.26
2018-11-11T18:08:08.311Z,13.31
2018-11-11T18:10:38.235Z,13.37
2018-11-11T18:13:08.039Z,13.34
2018-11-11T18:15:37.862Z,13.18
2018-11-11T18:18:07.662Z,13.15
2018-11-11T18:20:37.434Z,13.14
2018-11-11T18:23:07.290Z,13.17
2018-11-11T18:25:37.206Z,13.19
2018-11-11T18:28:07.220Z,13.21
2018-11-11T18:30:36.848Z,13.21
2018-11-11T18:33:06.655Z,13.19
2018-11-11T18:35:36.396Z,13.21
2018-11-11T18:38:06.196Z,13.15
2018-11-11T18:40:35.891Z,13.05
2018-11-11T18:43:06.070Z,12.92
2018-11-11T18:45:35.967Z,12.87
2018-11-11T18:48:06.098Z,12.89
2018-11-11T18:50:35.833Z,12.82
2018-11-11T18:53:05.577Z,12.88
2018-11-11T18:55:35.285Z,12.94
2018-11-11T18:58:05.330Z,13.06
2018-11-11T19:00:35.753Z,13.02
2018-11-11T19:03:05.538Z,13.02
2018-11-11T19:05:35.575Z,12.94
2018-11-11T19:08:05.695Z,12.85
2018-11-11T19:10:35.571Z,12.74
2018-11-11T19:13:06.864Z,12.71
2018-11-11T19:15:36.820Z,12.81
2018-11-11T19:18:06.700Z,12.83
2018-11-11T19:20:36.502Z,12.92
2018-11-11T19:23:06.491Z,13.07
2018-11-11T19:25:36.294Z,13.18
2018-11-11T19:28:06.313Z,13.12
2018-11-11T19:30:36.146Z,13.16
2018-11-11T19:33:05.893Z,13.16
2018-11-11T19:35:35.716Z,13.21
2018-11-11T19:38:05.482Z,13.32
2018-11-11T19:40:35.454Z,13.37
2018-11-11T19:43:05.619Z,13.25
2018-11-11T19:45:35.461Z,13.13
2018-11-11T19:48:05.944Z,12.99
2018-11-11T19:50:35.798Z,13.00
2018-11-11T19:53:05.628Z,12.97
2018-11-11T19:55:35.420Z,12.88
2018-11-11T19:58:05.463Z,12.88
2018-11-11T20:00:35.522Z,12.97
2018-11-11T20:03:06.030Z,13.00
2018-11-11T20:05:35.872Z,12.90
2018-11-11T20:08:05.859Z,12.85
2018-11-11T20:10:35.708Z,12.75
2018-11-11T20:13:05.705Z,12.75
2018-11-11T20:15:35.821Z,12.78
2018-11-11T20:18:05.754Z,12.74
2018-11-11T20:20:39.663Z,12.63
2018-11-11T20:23:09.448Z,12.59
2018-11-11T20:25:39.278Z,12.51
2018-11-11T20:28:09.044Z,12.49
2018-11-11T20:30:39.220Z,12.49
2018-11-11T20:33:09.035Z,12.38
2018-11-11T20:35:38.927Z,12.46
2018-11-11T20:38:08.733Z,12.55
2018-11-11T20:40:38.633Z,12.53
2018-11-11T20:43:08.399Z,12.51
2018-11-11T20:45:38.145Z,12.52
2018-11-11T20:48:07.978Z,12.52
2018-11-11T20:50:37.815Z,12.52
2018-11-11T20:53:07.977Z,12.54
2018-11-11T20:55:37.835Z,12.57
2018-11-11T20:58:07.580Z,12.51
2018-11-11T21:00:38.742Z,12.57
2018-11-11T21:03:09.014Z,12.63
2018-11-11T21:05:38.898Z,12.55
2018-11-11T21:08:08.644Z,12.47
2018-11-11T21:10:38.437Z,12.44
2018-11-11T21:13:08.182Z,12.40
2018-11-11T21:15:37.967Z,12.35
2018-11-11T21:18:07.907Z,12.42
2018-11-11T21:20:37.613Z,12.36
2018-11-11T21:23:07.831Z,12.33
2018-11-11T21:25:37.693Z,12.40
2018-11-11T21:28:07.444Z,12.25
2018-11-11T21:30:37.230Z,12.21
2018-11-11T21:33:06.940Z,12.34
2018-11-11T21:35:36.680Z,12.36
2018-11-11T21:38:06.587Z,12.38
2018-11-11T21:40:36.126Z,12.40
2018-11-11T21:43:06.067Z,12.30
2018-11-11T21:45:35.996Z,12.18
2018-11-11T21:48:06.563Z,12.10
2018-11-11T21:50:36.301Z,11.94
2018-11-11T21:53:34.448Z,11.89
2018-11-11T21:56:04.594Z,11.98
2018-11-11T21:58:34.387Z,12.06
2018-11-11T22:01:04.172Z,12.12
2018-11-11T22:03:33.942Z,12.08
2018-11-11T22:06:03.813Z,12.07
2018-11-11T22:08:33.679Z,12.13
2018-11-11T22:11:03.445Z,12.26
2018-11-11T22:13:33.187Z,12.32
2018-11-11T22:16:03.094Z,12.36
2018-11-11T22:18:33.250Z,12.47
2018-11-11T22:21:02.974Z,12.60
2018-11-11T22:23:32.835Z,12.69
2018-11-11T22:26:02.563Z,12.89
2018-11-11T22:28:32.281Z,12.91
2018-11-11T22:31:02.129Z,12.78
2018-11-11T22:33:31.935Z,12.66
2018-11-11T22:36:01.811Z,12.56
2018-11-11T22:38:31.571Z,12.46
2018-11-11T22:41:01.257Z,12.32
2018-11-11T22:43:31.035Z,12.31
2018-11-11T22:46:00.912Z,12.31
2018-11-11T22:48:30.977Z,12.34
2018-11-11T22:51:00.749Z,12.38
2018-11-11T22:53:30.527Z,12.35
2018-11-11T22:56:00.287Z,12.29
2018-11-11T22:58:29.992Z,12.39
2018-11-11T23:01:16.950Z,12.46
2018-11-11T23:03:46.623Z,12.48
2018-11-11T23:06:16.395Z,12.49
2018-11-11T23:08:46.137Z,12.53
2018-11-11T23:11:15.802Z,12.56
2018-11-11T23:13:45.599Z,12.63
2018-11-11T23:16:15.495Z,12.76
2018-11-11T23:18:45.154Z,12.88
2018-11-11T23:21:15.032Z,12.89
2018-11-11T23:23:44.722Z,13.08
2018-11-11T23:26:14.484Z,12.84
2018-11-11T23:28:44.297Z,12.63
2018-11-11T23:31:14.098Z,12.50
2018-11-11T23:33:43.787Z,12.46
2018-11-11T23:36:13.534Z,12.46
2018-11-11T23:38:43.249Z,12.49
2018-11-11T23:41:12.972Z,12.04
2018-11-11T23:43:42.687Z,12.02
2018-11-11T23:46:12.408Z,12.16
2018-11-11T23:48:42.129Z,12.28
2018-11-11T23:51:11.827Z,12.26
2018-11-11T23:53:41.802Z,12.16
2018-11-11T23:56:11.608Z,12.19
2018-11-11T23:58:41.327Z,12.23
